sensor_id;sensor_type;location;lat;lon;timestamp;P1;durP1;ratioP1;P2;durP2;ratioP2
20369;SDS011;10344;47.592;9.600;2022-10-15T09:10:51;1.57;;;1.00;;
20369;SDS011;10344;47.592;9.600;2022-10-15T09:16:08;2.53;;;0.82;;
20369;SDS011;10344;47.592;9.600;2022-10-15T09:18:37;1.80;;;0.85;;
20369;SDS011;10344;47.592;9.600;2022-10-15T09:21:08;1.13;;;0.80;;
20369;SDS011;10344;47.592;9.600;2022-10-15T09:23:37;1.97;;;0.80;;
20369;SDS011;10344;47.592;9.600;2022-10-15T09:26:22;2.38;;;1.00;;
20369;SDS011;10344;47.592;9.600;2022-10-15T09:35:02;1.25;;;0.80;;
20369;SDS011;10344;47.592;9.600;2022-10-15T09:42:44;1.67;;;1.00;;
20369;SDS011;10344;47.592;9.600;2022-10-15T09:45:13;1.17;;;0.90;;
20369;SDS011;10344;47.592;9.600;2022-10-15T09:47:40;2.53;;;1.10;;
20369;SDS011;10344;47.592;9.600;2022-10-15T09:50:11;1.70;;;1.20;;
20369;SDS011;10344;47.592;9.600;2022-10-15T09:58:22;1.17;;;1.08;;
20369;SDS011;10344;47.592;9.600;2022-10-15T10:01:05;2.30;;;1.20;;
20369;SDS011;10344;47.592;9.600;2022-10-15T10:03:32;1.13;;;1.02;;
20369;SDS011;10344;47.592;9.600;2022-10-15T10:06:10;1.48;;;1.15;;
20369;SDS011;10344;47.592;9.600;2022-10-15T10:11:19;0.80;;;0.80;;
20369;SDS011;10344;47.592;9.600;2022-10-15T10:13:50;1.08;;;0.98;;
20369;SDS011;10344;47.592;9.600;2022-10-15T10:16:20;1.30;;;1.17;;
20369;SDS011;10344;47.592;9.600;2022-10-15T10:19:01;1.17;;;0.82;;
20369;SDS011;10344;47.592;9.600;2022-10-15T10:21:29;2.00;;;1.10;;
20369;SDS011;10344;47.592;9.600;2022-10-15T10:24:45;1.95;;;1.15;;
20369;SDS011;10344;47.592;9.600;2022-10-15T10:26:54;1.67;;;1.02;;
20369;SDS011;10344;47.592;9.600;2022-10-15T10:29:21;1.60;;;1.00;;
20369;SDS011;10344;47.592;9.600;2022-10-15T10:31:48;2.53;;;1.08;;
20369;SDS011;10344;47.592;9.600;2022-10-15T10:34:19;1.90;;;1.02;;
20369;SDS011;10344;47.592;9.600;2022-10-15T10:36:51;1.70;;;1.20;;
20369;SDS011;10344;47.592;9.600;2022-10-15T10:41:55;1.65;;;1.30;;
20369;SDS011;10344;47.592;9.600;2022-10-15T10:44:36;3.80;;;1.20;;
20369;SDS011;10344;47.592;9.600;2022-10-15T10:49:57;2.63;;;1.20;;
20369;SDS011;10344;47.592;9.600;2022-10-15T10:57:55;2.00;;;1.00;;
20369;SDS011;10344;47.592;9.600;2022-10-15T11:00:38;1.40;;;1.08;;
20369;SDS011;10344;47.592;9.600;2022-10-15T11:03:16;0.95;;;0.95;;
20369;SDS011;10344;47.592;9.600;2022-10-15T11:12:56;0.93;;;0.80;;
20369;SDS011;10344;47.592;9.600;2022-10-15T11:35:04;2.78;;;1.27;;
20369;SDS011;10344;47.592;9.600;2022-10-15T11:47:52;2.58;;;1.80;;
20369;SDS011;10344;47.592;9.600;2022-10-15T11:50:54;1.50;;;1.40;;
20369;SDS011;10344;47.592;9.600;2022-10-15T11:56:37;1.20;;;1.00;;
20369;SDS011;10344;47.592;9.600;2022-10-15T11:59:15;1.30;;;1.17;;
20369;SDS011;10344;47.592;9.600;2022-10-15T12:01:49;1.02;;;0.95;;
20369;SDS011;10344;47.592;9.600;2022-10-15T12:07:15;1.30;;;0.90;;
20369;SDS011;10344;47.592;9.600;2022-10-15T12:09:54;1.23;;;0.80;;
20369;SDS011;10344;47.592;9.600;2022-10-15T12:20:57;1.98;;;1.25;;
20369;SDS011;10344;47.592;9.600;2022-10-15T12:23:38;1.55;;;1.15;;
20369;SDS011;10344;47.592;9.600;2022-10-15T12:28:53;1.73;;;1.02;;
20369;SDS011;10344;47.592;9.600;2022-10-15T12:31:21;1.63;;;1.27;;
20369;SDS011;10344;47.592;9.600;2022-10-15T12:36:23;1.70;;;1.35;;
20369;SDS011;10344;47.592;9.600;2022-10-15T12:39:02;1.55;;;1.45;;
20369;SDS011;10344;47.592;9.600;2022-10-15T12:41:39;1.63;;;1.15;;
20369;SDS011;10344;47.592;9.600;2022-10-15T12:46:43;1.52;;;1.10;;
20369;SDS011;10344;47.592;9.600;2022-10-15T12:51:56;1.85;;;1.38;;
20369;SDS011;10344;47.592;9.600;2022-10-15T12:59:57;1.50;;;1.27;;
20369;SDS011;10344;47.592;9.600;2022-10-15T13:07:57;1.20;;;1.10;;
20369;SDS011;10344;47.592;9.600;2022-10-15T13:10:36;1.88;;;1.10;;
20369;SDS011;10344;47.592;9.600;2022-10-15T13:13:17;2.05;;;1.08;;
20369;SDS011;10344;47.592;9.600;2022-10-15T13:15:51;1.52;;;0.98;;
20369;SDS011;10344;47.592;9.600;2022-10-15T13:18:25;1.33;;;0.90;;
20369;SDS011;10344;47.592;9.600;2022-10-15T13:21:14;2.05;;;1.00;;
20369;SDS011;10344;47.592;9.600;2022-10-15T13:26:54;0.85;;;0.85;;
20369;SDS011;10344;47.592;9.600;2022-10-15T13:30:12;1.70;;;1.00;;
20369;SDS011;10344;47.592;9.600;2022-10-15T13:32:54;0.93;;;0.90;;
20369;SDS011;10344;47.592;9.600;2022-10-15T13:35:22;1.17;;;0.95;;
20369;SDS011;10344;47.592;9.600;2022-10-15T13:37:53;1.20;;;1.10;;
20369;SDS011;10344;47.592;9.600;2022-10-15T13:40:21;0.82;;;0.82;;
20369;SDS011;10344;47.592;9.600;2022-10-15T13:43:01;1.10;;;1.00;;
20369;SDS011;10344;47.592;9.600;2022-10-15T13:45:28;2.97;;;1.17;;
20369;SDS011;10344;47.592;9.600;2022-10-15T13:47:56;2.53;;;1.25;;
20369;SDS011;10344;47.592;9.600;2022-10-15T13:52:59;1.40;;;0.85;;
20369;SDS011;10344;47.592;9.600;2022-10-15T13:55:29;2.70;;;1.08;;
20369;SDS011;10344;47.592;9.600;2022-10-15T14:00:56;0.98;;;0.80;;
20369;SDS011;10344;47.592;9.600;2022-10-15T14:03:27;0.70;;;0.70;;
20369;SDS011;10344;47.592;9.600;2022-10-15T14:05:55;0.65;;;0.63;;
20369;SDS011;10344;47.592;9.600;2022-10-15T14:08:28;0.63;;;0.60;;
20369;SDS011;10344;47.592;9.600;2022-10-15T14:10:58;2.23;;;0.50;;
20369;SDS011;10344;47.592;9.600;2022-10-15T14:13:24;0.57;;;0.50;;
20369;SDS011;10344;47.592;9.600;2022-10-15T14:18:26;1.17;;;0.80;;
20369;SDS011;10344;47.592;9.600;2022-10-15T14:20:57;1.17;;;0.70;;
20369;SDS011;10344;47.592;9.600;2022-10-15T14:23:24;1.13;;;0.60;;
20369;SDS011;10344;47.592;9.600;2022-10-15T14:25:55;0.57;;;0.52;;
20369;SDS011;10344;47.592;9.600;2022-10-15T14:28:26;1.10;;;0.60;;
20369;SDS011;10344;47.592;9.600;2022-10-15T14:30:53;0.95;;;0.52;;
20369;SDS011;10344;47.592;9.600;2022-10-15T14:36:21;0.55;;;0.50;;
20369;SDS011;10344;47.592;9.600;2022-10-15T14:41:55;0.40;;;0.40;;
20369;SDS011;10344;47.592;9.600;2022-10-15T14:44:22;0.70;;;0.40;;
20369;SDS011;10344;47.592;9.600;2022-10-15T14:46:48;0.50;;;0.50;;
20369;SDS011;10344;47.592;9.600;2022-10-15T14:49:24;0.57;;;0.38;;
20369;SDS011;10344;47.592;9.600;2022-10-15T14:51:56;0.40;;;0.40;;
20369;SDS011;10344;47.592;9.600;2022-10-15T14:54:30;0.55;;;0.55;;
20369;SDS011;10344;47.592;9.600;2022-10-15T14:56:59;0.90;;;0.40;;
20369;SDS011;10344;47.592;9.600;2022-10-15T14:59:27;1.10;;;0.50;;
20369;SDS011;10344;47.592;9.600;2022-10-15T15:01:57;2.13;;;1.60;;
20369;SDS011;10344;47.592;9.600;2022-10-15T15:07:05;3.00;;;1.87;;
20369;SDS011;10344;47.592;9.600;2022-10-15T15:09:36;2.65;;;2.20;;
20369;SDS011;10344;47.592;9.600;2022-10-15T15:12:03;2.40;;;1.73;;
20369;SDS011;10344;47.592;9.600;2022-10-15T15:14:32;2.10;;;1.40;;
20369;SDS011;10344;47.592;9.600;2022-10-15T15:16:58;1.17;;;1.07;;
20369;SDS011;10344;47.592;9.600;2022-10-15T15:19:23;0.87;;;0.80;;
20369;SDS011;10344;47.592;9.600;2022-10-15T15:21:49;1.88;;;1.10;;
20369;SDS011;10344;47.592;9.600;2022-10-15T15:24:14;0.98;;;0.77;;
20369;SDS011;10344;47.592;9.600;2022-10-15T15:26:43;0.75;;;0.70;;
20369;SDS011;10344;47.592;9.600;2022-10-15T15:29:10;1.60;;;0.90;;
20369;SDS011;10344;47.592;9.600;2022-10-15T15:31:39;1.50;;;0.90;;
20369;SDS011;10344;47.592;9.600;2022-10-15T15:34:05;1.93;;;1.40;;
20369;SDS011;10344;47.592;9.600;2022-10-15T15:36:30;2.28;;;1.42;;
20369;SDS011;10344;47.592;9.600;2022-10-15T15:38:56;2.97;;;1.80;;
20369;SDS011;10344;47.592;9.600;2022-10-15T15:41:23;1.73;;;1.33;;
20369;SDS011;10344;47.592;9.600;2022-10-15T15:43:49;2.30;;;1.23;;
20369;SDS011;10344;47.592;9.600;2022-10-15T15:46:16;1.77;;;1.40;;
20369;SDS011;10344;47.592;9.600;2022-10-15T15:48:44;1.80;;;1.25;;
20369;SDS011;10344;47.592;9.600;2022-10-15T15:51:19;2.45;;;1.30;;
20369;SDS011;10344;47.592;9.600;2022-10-15T15:53:45;3.17;;;1.30;;
20369;SDS011;10344;47.592;9.600;2022-10-15T15:56:12;1.90;;;1.20;;
20369;SDS011;10344;47.592;9.600;2022-10-15T15:58:37;1.83;;;1.27;;
20369;SDS011;10344;47.592;9.600;2022-10-15T16:01:08;1.48;;;1.10;;
20369;SDS011;10344;47.592;9.600;2022-10-15T16:03:36;2.22;;;1.25;;
20369;SDS011;10344;47.592;9.600;2022-10-15T16:06:05;1.98;;;1.20;;
20369;SDS011;10344;47.592;9.600;2022-10-15T16:08:34;1.33;;;1.10;;
20369;SDS011;10344;47.592;9.600;2022-10-15T16:11:03;2.30;;;1.13;;
20369;SDS011;10344;47.592;9.600;2022-10-15T16:13:34;1.25;;;1.00;;
20369;SDS011;10344;47.592;9.600;2022-10-15T16:15:59;1.88;;;1.10;;
20369;SDS011;10344;47.592;9.600;2022-10-15T16:18:25;2.00;;;1.05;;
20369;SDS011;10344;47.592;9.600;2022-10-15T16:20:53;0.80;;;0.80;;
20369;SDS011;10344;47.592;9.600;2022-10-15T16:23:19;1.70;;;0.88;;
20369;SDS011;10344;47.592;9.600;2022-10-15T16:25:44;1.40;;;1.25;;
20369;SDS011;10344;47.592;9.600;2022-10-15T16:28:10;2.17;;;1.20;;
20369;SDS011;10344;47.592;9.600;2022-10-15T16:30:36;1.53;;;0.83;;
20369;SDS011;10344;47.592;9.600;2022-10-15T16:33:01;0.80;;;0.80;;
20369;SDS011;10344;47.592;9.600;2022-10-15T16:35:29;0.85;;;0.80;;
20369;SDS011;10344;47.592;9.600;2022-10-15T16:37:55;1.27;;;0.80;;
20369;SDS011;10344;47.592;9.600;2022-10-15T16:40:24;0.97;;;0.90;;
20369;SDS011;10344;47.592;9.600;2022-10-15T16:42:50;1.60;;;1.10;;
20369;SDS011;10344;47.592;9.600;2022-10-15T16:45:15;1.60;;;0.70;;
20369;SDS011;10344;47.592;9.600;2022-10-15T16:47:41;0.80;;;0.80;;
20369;SDS011;10344;47.592;9.600;2022-10-15T16:50:07;1.17;;;0.90;;
20369;SDS011;10344;47.592;9.600;2022-10-15T16:52:33;1.40;;;1.10;;
20369;SDS011;10344;47.592;9.600;2022-10-15T16:54:59;1.33;;;1.00;;
20369;SDS011;10344;47.592;9.600;2022-10-15T16:57:25;2.13;;;1.20;;
20369;SDS011;10344;47.592;9.600;2022-10-15T16:59:50;1.85;;;1.20;;
20369;SDS011;10344;47.592;9.600;2022-10-15T17:02:16;1.13;;;1.03;;
20369;SDS011;10344;47.592;9.600;2022-10-15T17:04:57;2.77;;;1.17;;
20369;SDS011;10344;47.592;9.600;2022-10-15T17:07:42;1.70;;;1.20;;
20369;SDS011;10344;47.592;9.600;2022-10-15T17:10:11;1.30;;;1.13;;
20369;SDS011;10344;47.592;9.600;2022-10-15T17:12:42;2.65;;;1.30;;
20369;SDS011;10344;47.592;9.600;2022-10-15T17:15:10;1.85;;;1.42;;
20369;SDS011;10344;47.592;9.600;2022-10-15T17:17:39;1.63;;;1.50;;
20369;SDS011;10344;47.592;9.600;2022-10-15T17:20:05;3.80;;;1.70;;
20369;SDS011;10344;47.592;9.600;2022-10-15T17:22:33;3.65;;;1.60;;
20369;SDS011;10344;47.592;9.600;2022-10-15T17:24:59;1.85;;;1.52;;
20369;SDS011;10344;47.592;9.600;2022-10-15T17:27:31;1.48;;;1.38;;
20369;SDS011;10344;47.592;9.600;2022-10-15T17:30:00;2.05;;;1.58;;
20369;SDS011;10344;47.592;9.600;2022-10-15T17:32:26;1.60;;;1.50;;
20369;SDS011;10344;47.592;9.600;2022-10-15T17:34:54;1.90;;;1.75;;
20369;SDS011;10344;47.592;9.600;2022-10-15T17:37:25;2.17;;;1.87;;
20369;SDS011;10344;47.592;9.600;2022-10-15T17:39:53;2.33;;;1.90;;
20369;SDS011;10344;47.592;9.600;2022-10-15T17:42:26;2.37;;;2.00;;
20369;SDS011;10344;47.592;9.600;2022-10-15T17:45:09;1.80;;;1.63;;
20369;SDS011;10344;47.592;9.600;2022-10-15T17:47:39;4.65;;;2.20;;
20369;SDS011;10344;47.592;9.600;2022-10-15T17:50:05;2.10;;;1.87;;
20369;SDS011;10344;47.592;9.600;2022-10-15T17:52:41;4.00;;;2.30;;
20369;SDS011;10344;47.592;9.600;2022-10-15T17:55:08;3.00;;;2.33;;
20369;SDS011;10344;47.592;9.600;2022-10-15T17:57:39;2.58;;;2.20;;
20369;SDS011;10344;47.592;9.600;2022-10-15T18:00:06;4.23;;;2.50;;
20369;SDS011;10344;47.592;9.600;2022-10-15T18:02:56;2.92;;;2.35;;
20369;SDS011;10344;47.592;9.600;2022-10-15T18:05:32;5.30;;;2.40;;
20369;SDS011;10344;47.592;9.600;2022-10-15T18:08:02;3.30;;;2.60;;
20369;SDS011;10344;47.592;9.600;2022-10-15T18:10:29;4.95;;;2.50;;
20369;SDS011;10344;47.592;9.600;2022-10-15T18:13:05;3.20;;;2.50;;
20369;SDS011;10344;47.592;9.600;2022-10-15T18:15:35;3.42;;;2.63;;
20369;SDS011;10344;47.592;9.600;2022-10-15T18:18:11;2.50;;;2.30;;
20369;SDS011;10344;47.592;9.600;2022-10-15T18:21:25;2.90;;;1.90;;
20369;SDS011;10344;47.592;9.600;2022-10-15T18:23:52;3.20;;;2.40;;
20369;SDS011;10344;47.592;9.600;2022-10-15T18:26:46;3.58;;;2.53;;
20369;SDS011;10344;47.592;9.600;2022-10-15T18:29:13;3.08;;;2.50;;
20369;SDS011;10344;47.592;9.600;2022-10-15T18:31:49;2.97;;;2.50;;
20369;SDS011;10344;47.592;9.600;2022-10-15T18:34:23;2.50;;;2.20;;
20369;SDS011;10344;47.592;9.600;2022-10-15T18:36:53;3.13;;;2.30;;
20369;SDS011;10344;47.592;9.600;2022-10-15T18:39:42;2.72;;;2.28;;
20369;SDS011;10344;47.592;9.600;2022-10-15T18:42:13;2.20;;;2.00;;
20369;SDS011;10344;47.592;9.600;2022-10-15T18:44:40;3.33;;;2.63;;
20369;SDS011;10344;47.592;9.600;2022-10-15T18:47:06;3.55;;;2.30;;
20369;SDS011;10344;47.592;9.600;2022-10-15T18:49:40;4.10;;;2.30;;
20369;SDS011;10344;47.592;9.600;2022-10-15T18:52:40;2.50;;;2.30;;
20369;SDS011;10344;47.592;9.600;2022-10-15T18:55:27;2.25;;;2.03;;
20369;SDS011;10344;47.592;9.600;2022-10-15T18:58:05;4.30;;;2.60;;
20369;SDS011;10344;47.592;9.600;2022-10-15T19:00:42;3.35;;;2.30;;
20369;SDS011;10344;47.592;9.600;2022-10-15T19:03:39;4.40;;;2.70;;
20369;SDS011;10344;47.592;9.600;2022-10-15T19:06:30;2.40;;;2.20;;
20369;SDS011;10344;47.592;9.600;2022-10-15T19:09:02;2.10;;;1.90;;
20369;SDS011;10344;47.592;9.600;2022-10-15T19:11:37;4.68;;;2.33;;
20369;SDS011;10344;47.592;9.600;2022-10-15T19:14:10;4.47;;;2.50;;
20369;SDS011;10344;47.592;9.600;2022-10-15T19:19:46;3.65;;;2.42;;
20369;SDS011;10344;47.592;9.600;2022-10-15T19:22:26;4.03;;;2.70;;
20369;SDS011;10344;47.592;9.600;2022-10-15T19:24:57;3.72;;;2.58;;
20369;SDS011;10344;47.592;9.600;2022-10-15T19:27:34;3.40;;;2.72;;
20369;SDS011;10344;47.592;9.600;2022-10-15T19:30:13;2.80;;;2.20;;
20369;SDS011;10344;47.592;9.600;2022-10-15T19:32:49;2.50;;;2.30;;
20369;SDS011;10344;47.592;9.600;2022-10-15T19:35:16;5.50;;;2.90;;
20369;SDS011;10344;47.592;9.600;2022-10-15T19:38:06;3.35;;;2.55;;
20369;SDS011;10344;47.592;9.600;2022-10-15T19:40:40;2.90;;;2.30;;
20369;SDS011;10344;47.592;9.600;2022-10-15T19:43:19;2.67;;;1.98;;
20369;SDS011;10344;47.592;9.600;2022-10-15T19:45:47;2.60;;;2.20;;
20369;SDS011;10344;47.592;9.600;2022-10-15T19:48:29;3.43;;;2.47;;
20369;SDS011;10344;47.592;9.600;2022-10-15T19:51:07;2.58;;;2.38;;
20369;SDS011;10344;47.592;9.600;2022-10-15T19:53:33;2.50;;;2.30;;
20369;SDS011;10344;47.592;9.600;2022-10-15T19:56:02;2.50;;;2.13;;
20369;SDS011;10344;47.592;9.600;2022-10-15T19:58:55;2.58;;;2.22;;
20369;SDS011;10344;47.592;9.600;2022-10-15T20:01:31;2.30;;;2.10;;
20369;SDS011;10344;47.592;9.600;2022-10-15T20:04:24;2.25;;;2.00;;
20369;SDS011;10344;47.592;9.600;2022-10-15T20:06:57;2.63;;;1.93;;
20369;SDS011;10344;47.592;9.600;2022-10-15T20:09:27;3.10;;;2.23;;
20369;SDS011;10344;47.592;9.600;2022-10-15T20:12:15;3.70;;;2.50;;
20369;SDS011;10344;47.592;9.600;2022-10-15T20:15:08;2.55;;;2.08;;
20369;SDS011;10344;47.592;9.600;2022-10-15T20:17:39;3.10;;;2.03;;
20369;SDS011;10344;47.592;9.600;2022-10-15T20:20:12;2.25;;;2.00;;
20369;SDS011;10344;47.592;9.600;2022-10-15T20:23:11;3.05;;;2.20;;
20369;SDS011;10344;47.592;9.600;2022-10-15T20:25:41;2.47;;;2.28;;
20369;SDS011;10344;47.592;9.600;2022-10-15T20:28:11;3.17;;;2.50;;
20369;SDS011;10344;47.592;9.600;2022-10-15T20:30:47;3.47;;;2.65;;
20369;SDS011;10344;47.592;9.600;2022-10-15T21:13:38;2.10;;;1.90;;
